sensor_id;sensor_type;location;lat;lon;timestamp;temperature;humidity
71879;DHT22;59755;43.834;4.364;2022-12-18T00:01:17;3.10;68.20
71879;DHT22;59755;43.834;4.364;2022-12-18T00:03:43;3.10;67.70
71879;DHT22;59755;43.834;4.364;2022-12-18T00:06:09;3.00;68.10
71879;DHT22;59755;43.834;4.364;2022-12-18T00:08:35;3.00;68.40
71879;DHT22;59755;43.834;4.364;2022-12-18T00:11:05;3.00;68.10
71879;DHT22;59755;43.834;4.364;2022-12-18T00:13:31;3.10;68.10
71879;DHT22;59755;43.834;4.364;2022-12-18T00:16:05;3.10;67.70
71879;DHT22;59755;43.834;4.364;2022-12-18T00:18:32;3.10;67.00
71879;DHT22;59755;43.834;4.364;2022-12-18T00:20:59;2.90;67.50
71879;DHT22;59755;43.834;4.364;2022-12-18T00:23:26;3.00;67.40
71879;DHT22;59755;43.834;4.364;2022-12-18T00:25:52;2.90;67.50
71879;DHT22;59755;43.834;4.364;2022-12-18T00:28:18;2.90;67.60
71879;DHT22;59755;43.834;4.364;2022-12-18T00:30:43;2.90;67.20
71879;DHT22;59755;43.834;4.364;2022-12-18T00:33:09;2.90;67.00
71879;DHT22;59755;43.834;4.364;2022-12-18T00:35:35;2.80;67.20
71879;DHT22;59755;43.834;4.364;2022-12-18T00:38:00;2.70;67.40
71879;DHT22;59755;43.834;4.364;2022-12-18T00:40:26;2.80;67.50
71879;DHT22;59755;43.834;4.364;2022-12-18T00:42:52;2.90;67.50
71879;DHT22;59755;43.834;4.364;2022-12-18T00:45:22;2.90;67.30
71879;DHT22;59755;43.834;4.364;2022-12-18T00:47:48;2.80;67.10
71879;DHT22;59755;43.834;4.364;2022-12-18T00:50:14;2.80;67.10
71879;DHT22;59755;43.834;4.364;2022-12-18T00:52:39;2.70;67.70
71879;DHT22;59755;43.834;4.364;2022-12-18T00:55:05;2.70;67.60
71879;DHT22;59755;43.834;4.364;2022-12-18T00:57:31;2.70;67.60
71879;DHT22;59755;43.834;4.364;2022-12-18T00:59:57;2.60;68.20
71879;DHT22;59755;43.834;4.364;2022-12-18T01:02:23;2.60;68.50
71879;DHT22;59755;43.834;4.364;2022-12-18T01:04:48;2.60;69.10
71879;DHT22;59755;43.834;4.364;2022-12-18T01:07:14;2.80;68.30
71879;DHT22;59755;43.834;4.364;2022-12-18T01:09:40;2.80;68.60
71879;DHT22;59755;43.834;4.364;2022-12-18T01:12:06;2.90;67.70
71879;DHT22;59755;43.834;4.364;2022-12-18T01:14:31;3.00;67.90
71879;DHT22;59755;43.834;4.364;2022-12-18T01:16:57;3.00;68.50
71879;DHT22;59755;43.834;4.364;2022-12-18T01:19:23;3.00;68.20
71879;DHT22;59755;43.834;4.364;2022-12-18T01:21:49;3.00;68.30
71879;DHT22;59755;43.834;4.364;2022-12-18T01:24:15;3.10;68.10
71879;DHT22;59755;43.834;4.364;2022-12-18T01:26:41;3.10;68.30
71879;DHT22;59755;43.834;4.364;2022-12-18T01:29:06;3.20;68.00
71879;DHT22;59755;43.834;4.364;2022-12-18T01:31:33;3.20;67.70
71879;DHT22;59755;43.834;4.364;2022-12-18T01:34:04;3.20;67.00
71879;DHT22;59755;43.834;4.364;2022-12-18T01:36:35;3.20;66.70
71879;DHT22;59755;43.834;4.364;2022-12-18T01:39:07;3.10;67.00
71879;DHT22;59755;43.834;4.364;2022-12-18T01:41:34;3.10;67.80
71879;DHT22;59755;43.834;4.364;2022-12-18T01:47:28;3.10;67.10
71879;DHT22;59755;43.834;4.364;2022-12-18T01:49:55;3.00;67.30
71879;DHT22;59755;43.834;4.364;2022-12-18T01:52:24;3.10;67.30
71879;DHT22;59755;43.834;4.364;2022-12-18T01:54:52;3.10;67.70
71879;DHT22;59755;43.834;4.364;2022-12-18T01:57:18;3.10;67.60
71879;DHT22;59755;43.834;4.364;2022-12-18T01:59:49;3.10;67.60
71879;DHT22;59755;43.834;4.364;2022-12-18T02:02:17;2.90;68.40
71879;DHT22;59755;43.834;4.364;2022-12-18T02:04:43;2.90;68.30
71879;DHT22;59755;43.834;4.364;2022-12-18T02:07:29;3.00;68.60
71879;DHT22;59755;43.834;4.364;2022-12-18T02:15:30;3.20;68.00
71879;DHT22;59755;43.834;4.364;2022-12-18T02:18:12;3.20;67.90
71879;DHT22;59755;43.834;4.364;2022-12-18T02:20:45;3.30;68.00
71879;DHT22;59755;43.834;4.364;2022-12-18T02:26:24;3.30;67.80
71879;DHT22;59755;43.834;4.364;2022-12-18T02:29:01;3.30;68.00
71879;DHT22;59755;43.834;4.364;2022-12-18T02:31:31;3.30;68.00
71879;DHT22;59755;43.834;4.364;2022-12-18T02:34:02;3.30;67.80
71879;DHT22;59755;43.834;4.364;2022-12-18T02:36:31;3.20;68.40
71879;DHT22;59755;43.834;4.364;2022-12-18T02:38:58;3.20;67.80
71879;DHT22;59755;43.834;4.364;2022-12-18T02:41:25;3.10;68.40
71879;DHT22;59755;43.834;4.364;2022-12-18T02:44:01;3.10;68.50
71879;DHT22;59755;43.834;4.364;2022-12-18T02:46:31;3.20;68.50
71879;DHT22;59755;43.834;4.364;2022-12-18T02:51:56;3.10;68.90
71879;DHT22;59755;43.834;4.364;2022-12-18T02:54:50;3.00;68.90
71879;DHT22;59755;43.834;4.364;2022-12-18T02:57:27;3.00;68.40
71879;DHT22;59755;43.834;4.364;2022-12-18T03:00:14;3.00;68.30
71879;DHT22;59755;43.834;4.364;2022-12-18T03:05:22;3.00;68.20
71879;DHT22;59755;43.834;4.364;2022-12-18T03:08:15;3.00;69.30
71879;DHT22;59755;43.834;4.364;2022-12-18T03:10:44;2.90;68.80
71879;DHT22;59755;43.834;4.364;2022-12-18T03:13:23;2.90;69.20
71879;DHT22;59755;43.834;4.364;2022-12-18T03:15:55;2.80;69.00
71879;DHT22;59755;43.834;4.364;2022-12-18T03:20:59;2.70;69.30
71879;DHT22;59755;43.834;4.364;2022-12-18T03:23:35;2.70;69.40
71879;DHT22;59755;43.834;4.364;2022-12-18T03:26:05;2.70;69.70
71879;DHT22;59755;43.834;4.364;2022-12-18T03:28:38;2.60;70.20
71879;DHT22;59755;43.834;4.364;2022-12-18T03:31:07;2.70;69.60
71879;DHT22;59755;43.834;4.364;2022-12-18T03:33:45;2.70;69.80
71879;DHT22;59755;43.834;4.364;2022-12-18T03:36:12;2.70;70.00
71879;DHT22;59755;43.834;4.364;2022-12-18T03:38:38;2.70;69.60
71879;DHT22;59755;43.834;4.364;2022-12-18T03:41:16;2.60;70.00
71879;DHT22;59755;43.834;4.364;2022-12-18T03:43:54;2.60;70.10
71879;DHT22;59755;43.834;4.364;2022-12-18T03:46:48;2.60;70.20
71879;DHT22;59755;43.834;4.364;2022-12-18T03:52:03;2.60;70.40
71879;DHT22;59755;43.834;4.364;2022-12-18T03:54:30;2.60;70.20
71879;DHT22;59755;43.834;4.364;2022-12-18T03:57:03;2.60;70.10
71879;DHT22;59755;43.834;4.364;2022-12-18T03:59:31;2.70;69.90
71879;DHT22;59755;43.834;4.364;2022-12-18T04:01:59;2.70;69.10
71879;DHT22;59755;43.834;4.364;2022-12-18T04:04:27;2.50;69.50
71879;DHT22;59755;43.834;4.364;2022-12-18T04:06:55;2.60;69.90
71879;DHT22;59755;43.834;4.364;2022-12-18T04:09:21;2.50;69.90
71879;DHT22;59755;43.834;4.364;2022-12-18T04:11:47;2.50;70.00
71879;DHT22;59755;43.834;4.364;2022-12-18T04:14:13;2.30;70.90
71879;DHT22;59755;43.834;4.364;2022-12-18T04:16:39;2.40;70.80
71879;DHT22;59755;43.834;4.364;2022-12-18T04:19:05;2.50;70.60
71879;DHT22;59755;43.834;4.364;2022-12-18T04:21:30;2.50;70.40
71879;DHT22;59755;43.834;4.364;2022-12-18T04:23:56;2.50;70.50
71879;DHT22;59755;43.834;4.364;2022-12-18T04:26:22;2.50;70.60
71879;DHT22;59755;43.834;4.364;2022-12-18T04:28:48;2.60;70.90
71879;DHT22;59755;43.834;4.364;2022-12-18T04:31:13;2.60;70.10
71879;DHT22;59755;43.834;4.364;2022-12-18T04:33:39;2.60;70.10
71879;DHT22;59755;43.834;4.364;2022-12-18T04:36:05;2.50;70.60
71879;DHT22;59755;43.834;4.364;2022-12-18T04:38:31;2.60;70.50
71879;DHT22;59755;43.834;4.364;2022-12-18T04:40:56;2.50;70.60
71879;DHT22;59755;43.834;4.364;2022-12-18T04:43:22;2.50;71.00
71879;DHT22;59755;43.834;4.364;2022-12-18T04:45:48;2.50;71.00
71879;DHT22;59755;43.834;4.364;2022-12-18T04:48:14;2.60;70.50
71879;DHT22;59755;43.834;4.364;2022-12-18T04:50:40;2.60;70.50
71879;DHT22;59755;43.834;4.364;2022-12-18T04:53:05;2.60;70.40
71879;DHT22;59755;43.834;4.364;2022-12-18T04:55:31;2.50;70.70
71879;DHT22;59755;43.834;4.364;2022-12-18T04:57:57;2.50;70.40
71879;DHT22;59755;43.834;4.364;2022-12-18T05:00:22;2.50;69.50
71879;DHT22;59755;43.834;4.364;2022-12-18T05:02:48;2.60;70.20
71879;DHT22;59755;43.834;4.364;2022-12-18T05:05:14;2.50;70.10
71879;DHT22;59755;43.834;4.364;2022-12-18T05:07:40;2.50;69.40
71879;DHT22;59755;43.834;4.364;2022-12-18T05:10:06;2.50;69.00
71879;DHT22;59755;43.834;4.364;2022-12-18T05:12:32;2.50;68.80
71879;DHT22;59755;43.834;4.364;2022-12-18T05:14:58;2.50;69.20
71879;DHT22;59755;43.834;4.364;2022-12-18T05:17:24;2.50;69.80
71879;DHT22;59755;43.834;4.364;2022-12-18T05:19:49;2.50;69.60
71879;DHT22;59755;43.834;4.364;2022-12-18T05:22:15;2.40;69.90
71879;DHT22;59755;43.834;4.364;2022-12-18T05:24:41;2.40;70.90
71879;DHT22;59755;43.834;4.364;2022-12-18T05:27:07;2.50;70.20
71879;DHT22;59755;43.834;4.364;2022-12-18T05:29:33;2.60;69.50
71879;DHT22;59755;43.834;4.364;2022-12-18T05:31:58;2.60;69.80
71879;DHT22;59755;43.834;4.364;2022-12-18T05:34:24;2.50;70.10
71879;DHT22;59755;43.834;4.364;2022-12-18T05:36:50;2.40;69.70
71879;DHT22;59755;43.834;4.364;2022-12-18T05:39:15;2.40;70.50
71879;DHT22;59755;43.834;4.364;2022-12-18T05:41:41;2.40;70.60
71879;DHT22;59755;43.834;4.364;2022-12-18T05:44:07;2.40;70.50
71879;DHT22;59755;43.834;4.364;2022-12-18T05:46:33;2.50;70.60
71879;DHT22;59755;43.834;4.364;2022-12-18T05:49:01;2.50;70.80
71879;DHT22;59755;43.834;4.364;2022-12-18T05:51:27;2.50;70.80
71879;DHT22;59755;43.834;4.364;2022-12-18T05:53:53;2.50;70.50
71879;DHT22;59755;43.834;4.364;2022-12-18T05:56:21;2.50;71.20
71879;DHT22;59755;43.834;4.364;2022-12-18T05:58:50;2.50;71.30
71879;DHT22;59755;43.834;4.364;2022-12-18T06:01:20;2.60;71.30
71879;DHT22;59755;43.834;4.364;2022-12-18T06:03:46;2.50;71.80
71879;DHT22;59755;43.834;4.364;2022-12-18T06:06:23;2.60;71.50
71879;DHT22;59755;43.834;4.364;2022-12-18T06:08:50;2.50;71.40
71879;DHT22;59755;43.834;4.364;2022-12-18T06:11:18;2.60;71.20
71879;DHT22;59755;43.834;4.364;2022-12-18T06:13:44;2.60;71.30
71879;DHT22;59755;43.834;4.364;2022-12-18T06:16:10;2.60;71.50
71879;DHT22;59755;43.834;4.364;2022-12-18T06:18:36;2.60;71.60
71879;DHT22;59755;43.834;4.364;2022-12-18T06:21:02;2.60;71.60
71879;DHT22;59755;43.834;4.364;2022-12-18T06:23:28;2.70;71.60
71879;DHT22;59755;43.834;4.364;2022-12-18T06:25:54;2.70;71.40
71879;DHT22;59755;43.834;4.364;2022-12-18T06:28:19;2.70;71.50
71879;DHT22;59755;43.834;4.364;2022-12-18T06:30:46;2.70;71.40
71879;DHT22;59755;43.834;4.364;2022-12-18T06:33:14;2.70;71.20
71879;DHT22;59755;43.834;4.364;2022-12-18T06:35:40;2.60;71.30
71879;DHT22;59755;43.834;4.364;2022-12-18T06:38:06;2.60;71.30
71879;DHT22;59755;43.834;4.364;2022-12-18T06:40:32;2.70;71.30
71879;DHT22;59755;43.834;4.364;2022-12-18T06:42:59;2.70;71.40
71879;DHT22;59755;43.834;4.364;2022-12-18T06:45:25;2.70;71.70
71879;DHT22;59755;43.834;4.364;2022-12-18T06:47:50;2.70;71.50
71879;DHT22;59755;43.834;4.364;2022-12-18T06:50:17;2.80;72.30
71879;DHT22;59755;43.834;4.364;2022-12-18T06:52:42;2.80;71.30
71879;DHT22;59755;43.834;4.364;2022-12-18T06:55:10;2.90;71.50
71879;DHT22;59755;43.834;4.364;2022-12-18T06:57:36;2.90;71.10
71879;DHT22;59755;43.834;4.364;2022-12-18T07:00:02;2.90;71.00
71879;DHT22;59755;43.834;4.364;2022-12-18T07:02:28;2.90;71.20
71879;DHT22;59755;43.834;4.364;2022-12-18T07:04:54;3.00;71.20
71879;DHT22;59755;43.834;4.364;2022-12-18T07:07:19;3.00;71.50
71879;DHT22;59755;43.834;4.364;2022-12-18T07:09:45;3.10;71.30
71879;DHT22;59755;43.834;4.364;2022-12-18T07:12:11;3.10;71.60
71879;DHT22;59755;43.834;4.364;2022-12-18T07:14:36;3.20;71.20
71879;DHT22;59755;43.834;4.364;2022-12-18T07:17:02;3.20;71.50
71879;DHT22;59755;43.834;4.364;2022-12-18T07:19:29;3.20;71.20
71879;DHT22;59755;43.834;4.364;2022-12-18T07:21:54;3.30;71.10
71879;DHT22;59755;43.834;4.364;2022-12-18T07:24:20;3.20;71.30
71879;DHT22;59755;43.834;4.364;2022-12-18T07:26:47;3.20;71.50
71879;DHT22;59755;43.834;4.364;2022-12-18T07:29:13;3.20;71.60
71879;DHT22;59755;43.834;4.364;2022-12-18T07:31:38;3.30;71.70
71879;DHT22;59755;43.834;4.364;2022-12-18T07:34:04;3.30;71.60
71879;DHT22;59755;43.834;4.364;2022-12-18T07:36:30;3.30;71.90
71879;DHT22;59755;43.834;4.364;2022-12-18T07:38:56;3.30;71.80
71879;DHT22;59755;43.834;4.364;2022-12-18T07:41:21;3.40;71.80
71879;DHT22;59755;43.834;4.364;2022-12-18T07:43:47;3.50;72.40
71879;DHT22;59755;43.834;4.364;2022-12-18T07:46:14;3.50;72.50
71879;DHT22;59755;43.834;4.364;2022-12-18T07:48:41;3.50;72.60
71879;DHT22;59755;43.834;4.364;2022-12-18T07:51:07;3.60;72.00
71879;DHT22;59755;43.834;4.364;2022-12-18T07:53:34;3.50;72.10
71879;DHT22;59755;43.834;4.364;2022-12-18T07:56:03;3.50;72.30
71879;DHT22;59755;43.834;4.364;2022-12-18T07:58:30;3.50;72.60
71879;DHT22;59755;43.834;4.364;2022-12-18T08:03:29;3.50;72.80
71879;DHT22;59755;43.834;4.364;2022-12-18T08:05:59;3.50;72.80
71879;DHT22;59755;43.834;4.364;2022-12-18T08:08:25;3.60;72.80
71879;DHT22;59755;43.834;4.364;2022-12-18T08:10:51;3.70;72.20
71879;DHT22;59755;43.834;4.364;2022-12-18T08:13:16;3.70;72.30
71879;DHT22;59755;43.834;4.364;2022-12-18T08:15:42;3.70;72.30
71879;DHT22;59755;43.834;4.364;2022-12-18T08:18:08;3.80;72.40
71879;DHT22;59755;43.834;4.364;2022-12-18T08:20:34;3.80;72.90
71879;DHT22;59755;43.834;4.364;2022-12-18T08:22:59;4.00;72.90
71879;DHT22;59755;43.834;4.364;2022-12-18T08:25:25;4.20;72.30
71879;DHT22;59755;43.834;4.364;2022-12-18T08:27:51;4.30;72.40
71879;DHT22;59755;43.834;4.364;2022-12-18T08:30:16;4.30;72.40
71879;DHT22;59755;43.834;4.364;2022-12-18T08:32:42;4.40;72.10
71879;DHT22;59755;43.834;4.364;2022-12-18T08:35:08;4.40;72.00
71879;DHT22;59755;43.834;4.364;2022-12-18T08:37:34;4.40;71.90
71879;DHT22;59755;43.834;4.364;2022-12-18T08:40:00;4.30;72.10
71879;DHT22;59755;43.834;4.364;2022-12-18T08:42:26;4.40;72.30
71879;DHT22;59755;43.834;4.364;2022-12-18T08:45:10;4.40;72.30
71879;DHT22;59755;43.834;4.364;2022-12-18T08:47:36;4.50;72.40
71879;DHT22;59755;43.834;4.364;2022-12-18T08:50:02;4.60;72.40
71879;DHT22;59755;43.834;4.364;2022-12-18T08:52:27;4.70;72.30
71879;DHT22;59755;43.834;4.364;2022-12-18T08:54:53;4.70;72.30
71879;DHT22;59755;43.834;4.364;2022-12-18T08:57:19;4.90;72.20
71879;DHT22;59755;43.834;4.364;2022-12-18T08:59:45;5.00;72.00
71879;DHT22;59755;43.834;4.364;2022-12-18T09:02:11;5.10;72.00
71879;DHT22;59755;43.834;4.364;2022-12-18T09:04:37;5.30;71.90
71879;DHT22;59755;43.834;4.364;2022-12-18T09:07:02;5.50;71.20
71879;DHT22;59755;43.834;4.364;2022-12-18T09:09:28;5.60;71.20
71879;DHT22;59755;43.834;4.364;2022-12-18T09:11:54;5.80;70.70
71879;DHT22;59755;43.834;4.364;2022-12-18T09:14:19;6.10;70.20
71879;DHT22;59755;43.834;4.364;2022-12-18T09:16:45;6.30;69.70
71879;DHT22;59755;43.834;4.364;2022-12-18T09:19:11;6.50;69.30
71879;DHT22;59755;43.834;4.364;2022-12-18T09:21:37;6.70;68.50
71879;DHT22;59755;43.834;4.364;2022-12-18T09:24:05;6.70;68.40
71879;DHT22;59755;43.834;4.364;2022-12-18T09:26:31;6.80;68.40
71879;DHT22;59755;43.834;4.364;2022-12-18T09:28:56;6.90;68.20
71879;DHT22;59755;43.834;4.364;2022-12-18T09:31:23;7.00;67.60
71879;DHT22;59755;43.834;4.364;2022-12-18T09:33:50;7.10;67.50
71879;DHT22;59755;43.834;4.364;2022-12-18T09:36:16;7.10;67.10
71879;DHT22;59755;43.834;4.364;2022-12-18T09:38:43;7.10;67.10
71879;DHT22;59755;43.834;4.364;2022-12-18T09:44:03;7.10;67.30
71879;DHT22;59755;43.834;4.364;2022-12-18T09:46:34;7.20;67.40
71879;DHT22;59755;43.834;4.364;2022-12-18T09:49:05;7.10;67.60
71879;DHT22;59755;43.834;4.364;2022-12-18T09:51:37;7.20;67.40
71879;DHT22;59755;43.834;4.364;2022-12-18T09:54:22;7.20;67.20
71879;DHT22;59755;43.834;4.364;2022-12-18T09:56:51;7.30;67.00
71879;DHT22;59755;43.834;4.364;2022-12-18T09:59:36;7.40;67.00
71879;DHT22;59755;43.834;4.364;2022-12-18T10:04:40;7.50;66.70
71879;DHT22;59755;43.834;4.364;2022-12-18T10:07:19;7.60;66.80
71879;DHT22;59755;43.834;4.364;2022-12-18T10:10:04;7.70;66.50
71879;DHT22;59755;43.834;4.364;2022-12-18T10:15:25;7.70;66.50
71879;DHT22;59755;43.834;4.364;2022-12-18T10:20:52;7.90;66.30
71879;DHT22;59755;43.834;4.364;2022-12-18T10:26:15;7.90;66.10
71879;DHT22;59755;43.834;4.364;2022-12-18T10:28:42;7.90;66.50
71879;DHT22;59755;43.834;4.364;2022-12-18T10:31:20;8.00;66.50
71879;DHT22;59755;43.834;4.364;2022-12-18T10:33:46;8.10;66.40
71879;DHT22;59755;43.834;4.364;2022-12-18T10:36:12;7.90;67.00
71879;DHT22;59755;43.834;4.364;2022-12-18T10:38:38;7.90;67.50
71879;DHT22;59755;43.834;4.364;2022-12-18T10:43:47;7.80;67.80
71879;DHT22;59755;43.834;4.364;2022-12-18T10:46:19;7.80;68.20
71879;DHT22;59755;43.834;4.364;2022-12-18T10:48:52;7.60;68.80
71879;DHT22;59755;43.834;4.364;2022-12-18T10:51:26;7.60;69.00
71879;DHT22;59755;43.834;4.364;2022-12-18T10:53:57;7.60;69.30
71879;DHT22;59755;43.834;4.364;2022-12-18T10:56:26;7.60;69.30
71879;DHT22;59755;43.834;4.364;2022-12-18T10:59:04;7.70;69.30
71879;DHT22;59755;43.834;4.364;2022-12-18T11:01:55;7.70;69.20
71879;DHT22;59755;43.834;4.364;2022-12-18T11:09:30;7.80;69.10
71879;DHT22;59755;43.834;4.364;2022-12-18T11:11:59;7.80;69.30
71879;DHT22;59755;43.834;4.364;2022-12-18T11:14:34;7.80;69.30
71879;DHT22;59755;43.834;4.364;2022-12-18T11:17:39;7.80;69.30
71879;DHT22;59755;43.834;4.364;2022-12-18T11:20:20;7.80;69.40
71879;DHT22;59755;43.834;4.364;2022-12-18T11:23:03;7.90;69.90
71879;DHT22;59755;43.834;4.364;2022-12-18T11:25:32;7.80;70.00
71879;DHT22;59755;43.834;4.364;2022-12-18T11:28:03;7.80;69.80
71879;DHT22;59755;43.834;4.364;2022-12-18T11:30:35;7.80;69.80
71879;DHT22;59755;43.834;4.364;2022-12-18T11:33:15;7.80;70.00
71879;DHT22;59755;43.834;4.364;2022-12-18T11:38:23;7.90;70.20
71879;DHT22;59755;43.834;4.364;2022-12-18T11:43:27;8.00;70.40
71879;DHT22;59755;43.834;4.364;2022-12-18T11:46:15;8.00;70.40
71879;DHT22;59755;43.834;4.364;2022-12-18T11:49:15;8.00;70.40
71879;DHT22;59755;43.834;4.364;2022-12-18T11:51:55;8.00;70.70
71879;DHT22;59755;43.834;4.364;2022-12-18T11:54:22;8.10;70.80
71879;DHT22;59755;43.834;4.364;2022-12-18T11:59:29;8.20;70.40
71879;DHT22;59755;43.834;4.364;2022-12-18T12:02:15;8.20;70.70
71879;DHT22;59755;43.834;4.364;2022-12-18T12:13:18;8.40;70.50
71879;DHT22;59755;43.834;4.364;2022-12-18T12:35:08;8.80;70.90
71879;DHT22;59755;43.834;4.364;2022-12-18T12:40:18;8.90;70.60
71879;DHT22;59755;43.834;4.364;2022-12-18T12:43:07;8.90;70.60
71879;DHT22;59755;43.834;4.364;2022-12-18T12:48:16;8.90;70.80
71879;DHT22;59755;43.834;4.364;2022-12-18T12:50:42;8.90;70.70
71879;DHT22;59755;43.834;4.364;2022-12-18T12:53:18;8.80;71.70
71879;DHT22;59755;43.834;4.364;2022-12-18T12:55:46;8.80;70.90
71879;DHT22;59755;43.834;4.364;2022-12-18T13:01:08;8.70;70.50
71879;DHT22;59755;43.834;4.364;2022-12-18T13:08:58;8.60;70.40
71879;DHT22;59755;43.834;4.364;2022-12-18T13:11:44;8.60;70.60
71879;DHT22;59755;43.834;4.364;2022-12-18T13:14:37;8.60;69.70
71879;DHT22;59755;43.834;4.364;2022-12-18T13:19:43;8.50;70.70
71879;DHT22;59755;43.834;4.364;2022-12-18T13:22:23;8.50;70.70
71879;DHT22;59755;43.834;4.364;2022-12-18T13:24:50;8.50;70.60
71879;DHT22;59755;43.834;4.364;2022-12-18T13:30:52;8.60;70.30
71879;DHT22;59755;43.834;4.364;2022-12-18T13:46:17;8.80;71.20
71879;DHT22;59755;43.834;4.364;2022-12-18T13:48:57;8.80;71.10
71879;DHT22;59755;43.834;4.364;2022-12-18T13:51:25;8.90;71.20
71879;DHT22;59755;43.834;4.364;2022-12-18T13:53:52;8.90;71.00
71879;DHT22;59755;43.834;4.364;2022-12-18T13:56:22;8.90;72.00
71879;DHT22;59755;43.834;4.364;2022-12-18T14:01:58;8.90;71.70
71879;DHT22;59755;43.834;4.364;2022-12-18T14:04:28;8.90;71.90
71879;DHT22;59755;43.834;4.364;2022-12-18T14:07:14;8.80;72.50
71879;DHT22;59755;43.834;4.364;2022-12-18T14:09:44;8.80;72.50
71879;DHT22;59755;43.834;4.364;2022-12-18T14:12:32;8.70;72.70
71879;DHT22;59755;43.834;4.364;2022-12-18T14:20:19;8.80;72.80
71879;DHT22;59755;43.834;4.364;2022-12-18T14:22:47;8.80;72.70
71879;DHT22;59755;43.834;4.364;2022-12-18T14:25:14;8.80;72.60
71879;DHT22;59755;43.834;4.364;2022-12-18T14:30:30;8.80;73.40
71879;DHT22;59755;43.834;4.364;2022-12-18T14:33:04;8.70;73.50
71879;DHT22;59755;43.834;4.364;2022-12-18T14:35:32;8.70;74.10
71879;DHT22;59755;43.834;4.364;2022-12-18T14:40:58;8.60;74.40
71879;DHT22;59755;43.834;4.364;2022-12-18T14:43:26;8.70;74.40
71879;DHT22;59755;43.834;4.364;2022-12-18T14:45:52;8.80;73.90
71879;DHT22;59755;43.834;4.364;2022-12-18T14:51:17;8.70;74.30
71879;DHT22;59755;43.834;4.364;2022-12-18T14:53:46;8.70;74.40
71879;DHT22;59755;43.834;4.364;2022-12-18T14:56:16;8.70;74.10
71879;DHT22;59755;43.834;4.364;2022-12-18T14:58:59;8.70;74.30
71879;DHT22;59755;43.834;4.364;2022-12-18T15:01:31;8.80;74.70
71879;DHT22;59755;43.834;4.364;2022-12-18T15:03:59;8.70;75.30
71879;DHT22;59755;43.834;4.364;2022-12-18T15:09:00;8.70;75.30
71879;DHT22;59755;43.834;4.364;2022-12-18T15:11:35;8.60;76.00
71879;DHT22;59755;43.834;4.364;2022-12-18T15:14:22;8.60;75.90
71879;DHT22;59755;43.834;4.364;2022-12-18T15:16:52;8.60;76.40
71879;DHT22;59755;43.834;4.364;2022-12-18T15:19:21;8.60;76.20
71879;DHT22;59755;43.834;4.364;2022-12-18T15:21:47;8.70;76.30
71879;DHT22;59755;43.834;4.364;2022-12-18T15:24:26;8.70;76.60
71879;DHT22;59755;43.834;4.364;2022-12-18T15:26:52;8.70;77.00
71879;DHT22;59755;43.834;4.364;2022-12-18T15:29:22;8.80;76.60
71879;DHT22;59755;43.834;4.364;2022-12-18T15:32:05;8.70;76.60
71879;DHT22;59755;43.834;4.364;2022-12-18T15:34:32;8.70;76.80
71879;DHT22;59755;43.834;4.364;2022-12-18T15:36:59;8.70;76.80
71879;DHT22;59755;43.834;4.364;2022-12-18T15:39:25;8.70;76.80
71879;DHT22;59755;43.834;4.364;2022-12-18T15:41:51;8.70;76.80
71879;DHT22;59755;43.834;4.364;2022-12-18T15:44:36;8.70;76.90
71879;DHT22;59755;43.834;4.364;2022-12-18T15:47:02;8.70;76.80
71879;DHT22;59755;43.834;4.364;2022-12-18T15:49:28;8.70;77.20
71879;DHT22;59755;43.834;4.364;2022-12-18T15:51:58;8.70;77.90
71879;DHT22;59755;43.834;4.364;2022-12-18T15:54:24;8.60;78.20
71879;DHT22;59755;43.834;4.364;2022-12-18T15:57:10;8.60;78.40
71879;DHT22;59755;43.834;4.364;2022-12-18T15:59:49;8.60;77.90
71879;DHT22;59755;43.834;4.364;2022-12-18T16:02:19;8.60;77.70
71879;DHT22;59755;43.834;4.364;2022-12-18T16:04:45;8.50;77.50
71879;DHT22;59755;43.834;4.364;2022-12-18T16:07:12;8.50;77.70
71879;DHT22;59755;43.834;4.364;2022-12-18T16:09:38;8.50;77.70
71879;DHT22;59755;43.834;4.364;2022-12-18T16:12:05;8.50;77.00
71879;DHT22;59755;43.834;4.364;2022-12-18T16:14:32;8.50;77.20
71879;DHT22;59755;43.834;4.364;2022-12-18T16:17:00;8.40;77.10
71879;DHT22;59755;43.834;4.364;2022-12-18T16:19:28;8.40;76.90
71879;DHT22;59755;43.834;4.364;2022-12-18T16:21:56;8.40;76.80
71879;DHT22;59755;43.834;4.364;2022-12-18T16:24:27;8.30;76.60
71879;DHT22;59755;43.834;4.364;2022-12-18T16:26:54;8.40;76.80
71879;DHT22;59755;43.834;4.364;2022-12-18T16:29:20;8.30;76.80
71879;DHT22;59755;43.834;4.364;2022-12-18T16:31:50;8.40;76.70
71879;DHT22;59755;43.834;4.364;2022-12-18T16:36:52;8.40;77.00
71879;DHT22;59755;43.834;4.364;2022-12-18T16:39:21;8.30;77.30
71879;DHT22;59755;43.834;4.364;2022-12-18T16:41:48;8.30;77.40
71879;DHT22;59755;43.834;4.364;2022-12-18T16:44:13;8.40;77.60
71879;DHT22;59755;43.834;4.364;2022-12-18T16:46:39;8.40;77.60
71879;DHT22;59755;43.834;4.364;2022-12-18T16:49:08;8.30;78.20
71879;DHT22;59755;43.834;4.364;2022-12-18T16:51:35;8.30;78.10
71879;DHT22;59755;43.834;4.364;2022-12-18T16:54:01;8.40;78.10
71879;DHT22;59755;43.834;4.364;2022-12-18T16:56:27;8.30;78.30
71879;DHT22;59755;43.834;4.364;2022-12-18T16:58:54;8.30;78.30
71879;DHT22;59755;43.834;4.364;2022-12-18T17:01:20;8.30;79.00
71879;DHT22;59755;43.834;4.364;2022-12-18T17:03:54;8.20;79.00
71879;DHT22;59755;43.834;4.364;2022-12-18T17:06:24;8.30;79.00
71879;DHT22;59755;43.834;4.364;2022-12-18T17:08:57;8.30;79.00
71879;DHT22;59755;43.834;4.364;2022-12-18T17:11:24;8.30;79.20
71879;DHT22;59755;43.834;4.364;2022-12-18T17:13:50;8.30;78.80
71879;DHT22;59755;43.834;4.364;2022-12-18T17:16:16;8.30;78.60
71879;DHT22;59755;43.834;4.364;2022-12-18T17:18:43;8.30;79.30
71879;DHT22;59755;43.834;4.364;2022-12-18T17:21:09;8.30;79.20
71879;DHT22;59755;43.834;4.364;2022-12-18T17:23:36;8.30;79.10
71879;DHT22;59755;43.834;4.364;2022-12-18T17:26:03;8.30;79.20
71879;DHT22;59755;43.834;4.364;2022-12-18T17:28:29;8.30;79.50
71879;DHT22;59755;43.834;4.364;2022-12-18T17:30:56;8.30;79.40
71879;DHT22;59755;43.834;4.364;2022-12-18T17:33:22;8.30;79.20
71879;DHT22;59755;43.834;4.364;2022-12-18T17:35:48;8.30;79.50
71879;DHT22;59755;43.834;4.364;2022-12-18T17:38:15;8.20;79.90
71879;DHT22;59755;43.834;4.364;2022-12-18T17:40:41;8.20;79.70
71879;DHT22;59755;43.834;4.364;2022-12-18T17:43:07;8.30;79.60
71879;DHT22;59755;43.834;4.364;2022-12-18T17:45:37;8.30;79.60
71879;DHT22;59755;43.834;4.364;2022-12-18T17:48:04;8.30;79.60
71879;DHT22;59755;43.834;4.364;2022-12-18T17:50:32;8.30;79.80
71879;DHT22;59755;43.834;4.364;2022-12-18T17:52:58;8.30;79.80
71879;DHT22;59755;43.834;4.364;2022-12-18T17:55:24;8.30;80.00
71879;DHT22;59755;43.834;4.364;2022-12-18T17:57:51;8.20;80.20
71879;DHT22;59755;43.834;4.364;2022-12-18T18:00:17;8.20;80.50
71879;DHT22;59755;43.834;4.364;2022-12-18T18:02:43;8.20;80.50
71879;DHT22;59755;43.834;4.364;2022-12-18T18:05:09;8.20;80.70
71879;DHT22;59755;43.834;4.364;2022-12-18T18:07:36;8.20;80.70
71879;DHT22;59755;43.834;4.364;2022-12-18T18:10:02;8.20;81.00
71879;DHT22;59755;43.834;4.364;2022-12-18T18:12:28;8.20;81.30
71879;DHT22;59755;43.834;4.364;2022-12-18T18:15:12;8.20;81.50